sensor_id;sensor_type;location;lat;lon;timestamp;pressure;altitude;pressure_sealevel;temperature;humidity
29907;BME280;16776;50.958;10.994;2022-11-15T00:01:11;98242.25;;;8.19;100.00
29907;BME280;16776;50.958;10.994;2022-11-15T00:03:43;98243.16;;;8.18;100.00
29907;BME280;16776;50.958;10.994;2022-11-15T00:06:11;98243.09;;;8.20;100.00
29907;BME280;16776;50.958;10.994;2022-11-15T00:08:38;98233.78;;;8.17;100.00
29907;BME280;16776;50.958;10.994;2022-11-15T00:11:05;98238.91;;;8.17;100.00
29907;BME280;16776;50.958;10.994;2022-11-15T00:13:31;98247.47;;;8.16;100.00
29907;BME280;16776;50.958;10.994;2022-11-15T00:15:59;98250.03;;;8.16;100.00
29907;BME280;16776;50.958;10.994;2022-11-15T00:18:26;98245.78;;;8.15;100.00
29907;BME280;16776;50.958;10.994;2022-11-15T00:20:53;98243.25;;;8.14;100.00
29907;BME280;16776;50.958;10.994;2022-11-15T00:23:21;98251.78;;;8.14;100.00
29907;BME280;16776;50.958;10.994;2022-11-15T00:25:55;98250.88;;;8.18;100.00
29907;BME280;16776;50.958;10.994;2022-11-15T00:28:21;98253.56;;;8.11;100.00
29907;BME280;16776;50.958;10.994;2022-11-15T00:30:48;98245.91;;;8.09;100.00
29907;BME280;16776;50.958;10.994;2022-11-15T00:33:18;98246.69;;;8.13;100.00
29907;BME280;16776;50.958;10.994;2022-11-15T00:35:45;98245.94;;;8.08;100.00
29907;BME280;16776;50.958;10.994;2022-11-15T00:38:11;98242.50;;;8.07;100.00
29907;BME280;16776;50.958;10.994;2022-11-15T00:40:39;98247.66;;;8.07;100.00
29907;BME280;16776;50.958;10.994;2022-11-15T00:43:06;98247.72;;;8.04;100.00
29907;BME280;16776;50.958;10.994;2022-11-15T00:45:33;98248.59;;;8.03;100.00
29907;BME280;16776;50.958;10.994;2022-11-15T00:47:59;98250.28;;;8.04;100.00
29907;BME280;16776;50.958;10.994;2022-11-15T00:50:29;98241.72;;;8.05;100.00
29907;BME280;16776;50.958;10.994;2022-11-15T00:53:01;98247.59;;;8.10;100.00
29907;BME280;16776;50.958;10.994;2022-11-15T00:55:28;98245.16;;;8.04;100.00
29907;BME280;16776;50.958;10.994;2022-11-15T00:57:55;98240.81;;;8.06;100.00
29907;BME280;16776;50.958;10.994;2022-11-15T01:00:22;98238.34;;;8.03;100.00
29907;BME280;16776;50.958;10.994;2022-11-15T01:02:49;98232.38;;;8.03;100.00
29907;BME280;16776;50.958;10.994;2022-11-15T01:05:15;98237.47;;;8.04;100.00
29907;BME280;16776;50.958;10.994;2022-11-15T01:07:42;98225.53;;;8.03;100.00
29907;BME280;16776;50.958;10.994;2022-11-15T01:10:09;98216.25;;;7.98;100.00
29907;BME280;16776;50.958;10.994;2022-11-15T01:12:38;98220.41;;;8.03;100.00
29907;BME280;16776;50.958;10.994;2022-11-15T01:15:07;98224.59;;;8.06;100.00
29907;BME280;16776;50.958;10.994;2022-11-15T01:17:35;98220.41;;;8.03;100.00
29907;BME280;16776;50.958;10.994;2022-11-15T01:20:02;98218.72;;;8.02;100.00
29907;BME280;16776;50.958;10.994;2022-11-15T01:22:29;98218.72;;;8.01;100.00
29907;BME280;16776;50.958;10.994;2022-11-15T01:24:58;98214.38;;;8.04;100.00
29907;BME280;16776;50.958;10.994;2022-11-15T01:27:25;98217.94;;;7.99;100.00
29907;BME280;16776;50.958;10.994;2022-11-15T01:29:52;98210.28;;;7.97;100.00
29907;BME280;16776;50.958;10.994;2022-11-15T01:32:20;98210.28;;;7.97;100.00
29907;BME280;16776;50.958;10.994;2022-11-15T01:34:46;98219.69;;;7.97;100.00
29907;BME280;16776;50.958;10.994;2022-11-15T01:37:15;98212.88;;;7.96;100.00
29907;BME280;16776;50.958;10.994;2022-11-15T01:39:42;98218.00;;;7.96;100.00
29907;BME280;16776;50.958;10.994;2022-11-15T01:42:11;98207.63;;;8.00;100.00
29907;BME280;16776;50.958;10.994;2022-11-15T01:44:41;98206.84;;;7.98;100.00
29907;BME280;16776;50.958;10.994;2022-11-15T01:47:12;98203.34;;;8.01;100.00
29907;BME280;16776;50.958;10.994;2022-11-15T01:49:49;98206.72;;;8.03;100.00
29907;BME280;16776;50.958;10.994;2022-11-15T01:52:19;98195.72;;;7.99;100.00
29907;BME280;16776;50.958;10.994;2022-11-15T01:54:49;98177.94;;;7.92;100.00
29907;BME280;16776;50.958;10.994;2022-11-15T01:57:16;98181.22;;;7.97;100.00
29907;BME280;16776;50.958;10.994;2022-11-15T01:59:43;98179.53;;;7.96;100.00
29907;BME280;16776;50.958;10.994;2022-11-15T02:02:12;98170.13;;;7.96;100.00
29907;BME280;16776;50.958;10.994;2022-11-15T02:04:42;98176.06;;;7.98;100.00
29907;BME280;16776;50.958;10.994;2022-11-15T02:07:12;98167.50;;;7.99;100.00
29907;BME280;16776;50.958;10.994;2022-11-15T02:09:39;98168.38;;;7.98;100.00
29907;BME280;16776;50.958;10.994;2022-11-15T02:12:07;98171.66;;;8.03;100.00
29907;BME280;16776;50.958;10.994;2022-11-15T02:14:38;98165.66;;;8.04;100.00
29907;BME280;16776;50.958;10.994;2022-11-15T02:17:17;98166.41;;;8.08;100.00
29907;BME280;16776;50.958;10.994;2022-11-15T02:23:06;98167.19;;;8.13;100.00
29907;BME280;16776;50.958;10.994;2022-11-15T02:25:39;98167.25;;;8.10;100.00
29907;BME280;16776;50.958;10.994;2022-11-15T02:31:12;98156.91;;;8.14;100.00
29907;BME280;16776;50.958;10.994;2022-11-15T02:33:43;98166.22;;;8.18;100.00
29907;BME280;16776;50.958;10.994;2022-11-15T02:36:20;98155.06;;;8.19;100.00
29907;BME280;16776;50.958;10.994;2022-11-15T02:38:58;98158.38;;;8.24;100.00
29907;BME280;16776;50.958;10.994;2022-11-15T02:41:30;98154.06;;;8.25;100.00
29907;BME280;16776;50.958;10.994;2022-11-15T02:44:05;98149.81;;;8.24;100.00
29907;BME280;16776;50.958;10.994;2022-11-15T02:46:37;98147.19;;;8.25;100.00
29907;BME280;16776;50.958;10.994;2022-11-15T02:49:25;98139.75;;;8.16;100.00
29907;BME280;16776;50.958;10.994;2022-11-15T02:51:55;98150.69;;;8.23;100.00
29907;BME280;16776;50.958;10.994;2022-11-15T02:54:24;98146.41;;;8.23;100.00
29907;BME280;16776;50.958;10.994;2022-11-15T02:56:59;98143.84;;;8.23;100.00
29907;BME280;16776;50.958;10.994;2022-11-15T02:59:47;98147.03;;;8.32;100.00
29907;BME280;16776;50.958;10.994;2022-11-15T03:02:26;98149.78;;;8.25;100.00
29907;BME280;16776;50.958;10.994;2022-11-15T03:05:04;98145.53;;;8.24;100.00
29907;BME280;16776;50.958;10.994;2022-11-15T03:07:39;98155.03;;;8.21;100.00
29907;BME280;16776;50.958;10.994;2022-11-15T03:10:13;98159.31;;;8.20;100.00
29907;BME280;16776;50.958;10.994;2022-11-15T03:12:55;98159.28;;;8.22;100.00
29907;BME280;16776;50.958;10.994;2022-11-15T03:15:28;98149.91;;;8.19;100.00
29907;BME280;16776;50.958;10.994;2022-11-15T03:18:00;98153.44;;;8.17;100.00
29907;BME280;16776;50.958;10.994;2022-11-15T03:20:28;98153.50;;;8.12;100.00
29907;BME280;16776;50.958;10.994;2022-11-15T03:23:01;98150.06;;;8.13;100.00
29907;BME280;16776;50.958;10.994;2022-11-15T03:25:32;98146.69;;;8.11;100.00
29907;BME280;16776;50.958;10.994;2022-11-15T03:28:03;98141.59;;;8.10;100.00
29907;BME280;16776;50.958;10.994;2022-11-15T03:30:33;98145.06;;;8.07;100.00
29907;BME280;16776;50.958;10.994;2022-11-15T03:33:03;98143.38;;;8.06;100.00
29907;BME280;16776;50.958;10.994;2022-11-15T03:35:32;98140.91;;;8.03;100.00
29907;BME280;16776;50.958;10.994;2022-11-15T03:38:06;98140.03;;;8.04;100.00
29907;BME280;16776;50.958;10.994;2022-11-15T03:40:39;98135.84;;;8.00;100.00
29907;BME280;16776;50.958;10.994;2022-11-15T03:43:14;98137.53;;;8.01;100.00
29907;BME280;16776;50.958;10.994;2022-11-15T03:45:46;98130.81;;;7.96;100.00
29907;BME280;16776;50.958;10.994;2022-11-15T03:48:21;98130.81;;;7.96;100.00
29907;BME280;16776;50.958;10.994;2022-11-15T03:50:50;98132.69;;;7.89;100.00
29907;BME280;16776;50.958;10.994;2022-11-15T03:53:17;98136.13;;;7.88;100.00
29907;BME280;16776;50.958;10.994;2022-11-15T03:55:44;98139.53;;;7.89;100.00
29907;BME280;16776;50.958;10.994;2022-11-15T03:58:10;98136.97;;;7.89;100.00
29907;BME280;16776;50.958;10.994;2022-11-15T04:00:37;98128.44;;;7.88;100.00
29907;BME280;16776;50.958;10.994;2022-11-15T04:03:03;98132.69;;;7.89;100.00
29907;BME280;16776;50.958;10.994;2022-11-15T04:05:35;98129.25;;;7.90;100.00
29907;BME280;16776;50.958;10.994;2022-11-15T04:08:04;98124.16;;;7.89;100.00
29907;BME280;16776;50.958;10.994;2022-11-15T04:10:31;98125.00;;;7.89;100.00
29907;BME280;16776;50.958;10.994;2022-11-15T04:12:57;98117.28;;;7.91;100.00
29907;BME280;16776;50.958;10.994;2022-11-15T04:15:24;98118.16;;;7.90;100.00
29907;BME280;16776;50.958;10.994;2022-11-15T04:17:52;98121.56;;;7.90;100.00
29907;BME280;16776;50.958;10.994;2022-11-15T04:20:21;98124.13;;;7.90;100.00
29907;BME280;16776;50.958;10.994;2022-11-15T04:23:09;98116.44;;;7.90;100.00
29907;BME280;16776;50.958;10.994;2022-11-15T04:25:55;98127.66;;;7.86;100.00
29907;BME280;16776;50.958;10.994;2022-11-15T04:28:22;98125.16;;;7.83;100.00
29907;BME280;16776;50.958;10.994;2022-11-15T04:30:49;98114.13;;;7.79;100.00
29907;BME280;16776;50.958;10.994;2022-11-15T04:33:15;98122.66;;;7.80;100.00
29907;BME280;16776;50.958;10.994;2022-11-15T04:35:42;98121.84;;;7.78;100.00
29907;BME280;16776;50.958;10.994;2022-11-15T04:38:13;98111.59;;;7.78;100.00
29907;BME280;16776;50.958;10.994;2022-11-15T04:40:42;98115.94;;;7.74;100.00
29907;BME280;16776;50.958;10.994;2022-11-15T04:43:08;98111.66;;;7.75;100.00
29907;BME280;16776;50.958;10.994;2022-11-15T04:45:35;98114.28;;;7.73;100.00
29907;BME280;16776;50.958;10.994;2022-11-15T04:48:02;98107.47;;;7.72;100.00
29907;BME280;16776;50.958;10.994;2022-11-15T04:50:28;98114.31;;;7.72;100.00
29907;BME280;16776;50.958;10.994;2022-11-15T04:52:55;98104.09;;;7.70;100.00
29907;BME280;16776;50.958;10.994;2022-11-15T04:55:23;98104.94;;;7.71;100.00
29907;BME280;16776;50.958;10.994;2022-11-15T04:57:57;98094.59;;;7.74;100.00
29907;BME280;16776;50.958;10.994;2022-11-15T05:00:27;98093.09;;;7.67;100.00
29907;BME280;16776;50.958;10.994;2022-11-15T05:02:54;98099.94;;;7.66;100.00
29907;BME280;16776;50.958;10.994;2022-11-15T05:05:38;98105.97;;;7.62;100.00
29907;BME280;16776;50.958;10.994;2022-11-15T05:08:05;98099.22;;;7.60;100.00
29907;BME280;16776;50.958;10.994;2022-11-15T05:10:36;98104.25;;;7.63;100.00
29907;BME280;16776;50.958;10.994;2022-11-15T05:13:03;98105.28;;;7.56;100.00
29907;BME280;16776;50.958;10.994;2022-11-15T05:15:29;98108.72;;;7.55;100.00
29907;BME280;16776;50.958;10.994;2022-11-15T05:17:57;98102.78;;;7.54;100.00
29907;BME280;16776;50.958;10.994;2022-11-15T05:20:25;98101.97;;;7.51;100.00
29907;BME280;16776;50.958;10.994;2022-11-15T05:22:52;98097.69;;;7.51;100.00
29907;BME280;16776;50.958;10.994;2022-11-15T05:25:19;98096.03;;;7.49;100.00
29907;BME280;16776;50.958;10.994;2022-11-15T05:27:47;98099.41;;;7.51;100.00
29907;BME280;16776;50.958;10.994;2022-11-15T05:30:15;98099.50;;;7.48;100.00
29907;BME280;16776;50.958;10.994;2022-11-15T05:32:42;98107.19;;;7.48;100.00
29907;BME280;16776;50.958;10.994;2022-11-15T05:35:12;98095.16;;;7.50;100.00
29907;BME280;16776;50.958;10.994;2022-11-15T05:37:40;98101.16;;;7.49;100.00
29907;BME280;16776;50.958;10.994;2022-11-15T05:40:08;98094.94;;;7.60;100.00
29907;BME280;16776;50.958;10.994;2022-11-15T05:42:38;98092.84;;;7.76;100.00
29907;BME280;16776;50.958;10.994;2022-11-15T05:45:08;98084.94;;;7.85;100.00
29907;BME280;16776;50.958;10.994;2022-11-15T05:47:37;98088.25;;;7.89;100.00
29907;BME280;16776;50.958;10.994;2022-11-15T05:50:05;98082.25;;;7.90;100.00
29907;BME280;16776;50.958;10.994;2022-11-15T05:52:36;98088.09;;;7.95;100.00
29907;BME280;16776;50.958;10.994;2022-11-15T05:55:05;98089.06;;;7.91;100.00
29907;BME280;16776;50.958;10.994;2022-11-15T05:57:33;98092.63;;;7.85;100.00
29907;BME280;16776;50.958;10.994;2022-11-15T06:00:00;98093.50;;;7.84;100.00
29907;BME280;16776;50.958;10.994;2022-11-15T06:02:29;98094.38;;;7.83;100.00
29907;BME280;16776;50.958;10.994;2022-11-15T06:04:55;98093.66;;;7.78;100.00
29907;BME280;16776;50.958;10.994;2022-11-15T06:07:24;98096.28;;;7.75;100.00
29907;BME280;16776;50.958;10.994;2022-11-15T06:09:50;98090.41;;;7.71;100.00
29907;BME280;16776;50.958;10.994;2022-11-15T06:12:19;98088.69;;;7.72;100.00
29907;BME280;16776;50.958;10.994;2022-11-15T06:14:45;98092.19;;;7.68;100.00
29907;BME280;16776;50.958;10.994;2022-11-15T06:17:12;98087.97;;;7.65;100.00
29907;BME280;16776;50.958;10.994;2022-11-15T06:19:43;98093.09;;;7.67;100.00
29907;BME280;16776;50.958;10.994;2022-11-15T06:22:09;98089.75;;;7.62;100.00
29907;BME280;16776;50.958;10.994;2022-11-15T06:24:36;98098.38;;;7.59;100.00
29907;BME280;16776;50.958;10.994;2022-11-15T06:27:03;98101.00;;;7.56;100.00
29907;BME280;16776;50.958;10.994;2022-11-15T06:29:29;98105.34;;;7.54;100.00
29907;BME280;16776;50.958;10.994;2022-11-15T06:31:56;98112.22;;;7.52;100.00
29907;BME280;16776;50.958;10.994;2022-11-15T06:34:22;98111.38;;;7.50;100.00
29907;BME280;16776;50.958;10.994;2022-11-15T06:36:50;98117.34;;;7.51;100.00
29907;BME280;16776;50.958;10.994;2022-11-15T06:39:17;98115.75;;;7.47;100.00
29907;BME280;16776;50.958;10.994;2022-11-15T06:41:44;98114.06;;;7.45;100.00
29907;BME280;16776;50.958;10.994;2022-11-15T06:44:10;98111.56;;;7.42;100.00
29907;BME280;16776;50.958;10.994;2022-11-15T06:46:37;98107.34;;;7.41;100.00
29907;BME280;16776;50.958;10.994;2022-11-15T06:49:07;98108.22;;;7.39;100.00
29907;BME280;16776;50.958;10.994;2022-11-15T06:51:33;98116.78;;;7.38;100.00
29907;BME280;16776;50.958;10.994;2022-11-15T06:54:02;98114.19;;;7.39;100.00
29907;BME280;16776;50.958;10.994;2022-11-15T06:56:28;98112.56;;;7.35;100.00
29907;BME280;16776;50.958;10.994;2022-11-15T06:58:55;98110.91;;;7.34;100.00
29907;BME280;16776;50.958;10.994;2022-11-15T07:01:22;98115.19;;;7.34;100.00
29907;BME280;16776;50.958;10.994;2022-11-15T07:03:48;98104.88;;;7.35;100.00
29907;BME280;16776;50.958;10.994;2022-11-15T07:06:15;98107.41;;;7.37;100.00
29907;BME280;16776;50.958;10.994;2022-11-15T07:08:41;98110.75;;;7.40;100.00
29907;BME280;16776;50.958;10.994;2022-11-15T07:11:09;98114.03;;;7.47;100.00
29907;BME280;16776;50.958;10.994;2022-11-15T07:13:36;98115.63;;;7.51;100.00
29907;BME280;16776;50.958;10.994;2022-11-15T07:16:04;98112.91;;;7.59;100.00
29907;BME280;16776;50.958;10.994;2022-11-15T07:18:33;98113.53;;;7.68;100.00
29907;BME280;16776;50.958;10.994;2022-11-15T07:21:01;98116.78;;;7.75;100.00
29907;BME280;16776;50.958;10.994;2022-11-15T07:23:28;98113.19;;;7.83;100.00
29907;BME280;16776;50.958;10.994;2022-11-15T07:25:56;98124.84;;;7.95;100.00
29907;BME280;16776;50.958;10.994;2022-11-15T07:28:24;98126.28;;;8.07;100.00
29907;BME280;16776;50.958;10.994;2022-11-15T07:30:51;98132.03;;;8.18;100.00
29907;BME280;16776;50.958;10.994;2022-11-15T07:33:17;98137.59;;;8.34;100.00
29907;BME280;16776;50.958;10.994;2022-11-15T07:35:44;98133.78;;;8.50;100.00
29907;BME280;16776;50.958;10.994;2022-11-15T07:38:14;98136.63;;;8.70;100.00
29907;BME280;16776;50.958;10.994;2022-11-15T07:40:44;98130.28;;;8.83;100.00
29907;BME280;16776;50.958;10.994;2022-11-15T07:43:11;98135.88;;;8.97;100.00
29907;BME280;16776;50.958;10.994;2022-11-15T07:45:44;98123.38;;;9.15;100.00
29907;BME280;16776;50.958;10.994;2022-11-15T07:48:11;98114.72;;;9.19;100.00
29907;BME280;16776;50.958;10.994;2022-11-15T07:50:42;98119.25;;;9.40;100.00
29907;BME280;16776;50.958;10.994;2022-11-15T07:53:09;98121.50;;;9.51;100.00
29907;BME280;16776;50.958;10.994;2022-11-15T07:55:36;98118.50;;;9.64;100.00
29907;BME280;16776;50.958;10.994;2022-11-15T07:58:05;98120.66;;;9.78;100.00
29907;BME280;16776;50.958;10.994;2022-11-15T08:00:37;98118.47;;;9.92;100.00
29907;BME280;16776;50.958;10.994;2022-11-15T08:03:07;98114.41;;;10.11;100.00
29907;BME280;16776;50.958;10.994;2022-11-15T08:05:35;98117.31;;;10.27;100.00
29907;BME280;16776;50.958;10.994;2022-11-15T08:08:02;98112.44;;;10.44;100.00
29907;BME280;16776;50.958;10.994;2022-11-15T08:10:29;98108.41;;;10.62;100.00
29907;BME280;16776;50.958;10.994;2022-11-15T08:12:59;98108.50;;;10.84;100.00
29907;BME280;16776;50.958;10.994;2022-11-15T08:15:26;98091.59;;;11.00;100.00
29907;BME280;16776;50.958;10.994;2022-11-15T08:17:56;98099.41;;;11.20;100.00
29907;BME280;16776;50.958;10.994;2022-11-15T08:20:28;98098.50;;;11.44;100.00
29907;BME280;16776;50.958;10.994;2022-11-15T08:22:55;98078.28;;;11.56;100.00
29907;BME280;16776;50.958;10.994;2022-11-15T08:25:24;98090.81;;;11.87;100.00
29907;BME280;16776;50.958;10.994;2022-11-15T08:27:59;98094.25;;;12.07;100.00
29907;BME280;16776;50.958;10.994;2022-11-15T08:30:26;98095.94;;;12.29;100.00
29907;BME280;16776;50.958;10.994;2022-11-15T08:32:54;98089.22;;;12.45;100.00
29907;BME280;16776;50.958;10.994;2022-11-15T08:35:22;98085.88;;;12.63;100.00
29907;BME280;16776;50.958;10.994;2022-11-15T08:37:52;98081.47;;;12.85;100.00
29907;BME280;16776;50.958;10.994;2022-11-15T08:40:21;98083.41;;;12.99;100.00
29907;BME280;16776;50.958;10.994;2022-11-15T08:42:52;98080.69;;;13.21;100.00
29907;BME280;16776;50.958;10.994;2022-11-15T08:45:18;98080.13;;;13.33;100.00
29907;BME280;16776;50.958;10.994;2022-11-15T08:47:45;98071.59;;;13.50;100.00
29907;BME280;16776;50.958;10.994;2022-11-15T08:50:11;98078.56;;;13.66;100.00
29907;BME280;16776;50.958;10.994;2022-11-15T08:52:38;98076.00;;;13.83;100.00
29907;BME280;16776;50.958;10.994;2022-11-15T08:55:07;98074.94;;;14.05;100.00
29907;BME280;16776;50.958;10.994;2022-11-15T08:57:34;98077.53;;;14.22;100.00
29907;BME280;16776;50.958;10.994;2022-11-15T09:00:00;98076.44;;;14.43;100.00
29907;BME280;16776;50.958;10.994;2022-11-15T09:02:27;98076.44;;;14.60;100.00
29907;BME280;16776;50.958;10.994;2022-11-15T09:04:56;98063.53;;;14.76;100.00
29907;BME280;16776;50.958;10.994;2022-11-15T09:07:23;98060.22;;;14.90;100.00
29907;BME280;16776;50.958;10.994;2022-11-15T09:09:52;98062.16;;;15.02;100.00
29907;BME280;16776;50.958;10.994;2022-11-15T09:12:20;98064.09;;;15.14;99.88
29907;BME280;16776;50.958;10.994;2022-11-15T09:14:46;98057.72;;;15.20;99.54
29907;BME280;16776;50.958;10.994;2022-11-15T09:17:13;98064.25;;;15.27;98.93
29907;BME280;16776;50.958;10.994;2022-11-15T09:19:39;98059.16;;;15.25;98.61
29907;BME280;16776;50.958;10.994;2022-11-15T09:22:06;98062.72;;;15.23;98.62
29907;BME280;16776;50.958;10.994;2022-11-15T09:24:33;98062.16;;;15.18;97.92
29907;BME280;16776;50.958;10.994;2022-11-15T09:27:00;98058.13;;;15.12;97.76
29907;BME280;16776;50.958;10.994;2022-11-15T09:29:28;98061.97;;;15.05;98.18
29907;BME280;16776;50.958;10.994;2022-11-15T09:31:54;98049.66;;;14.93;97.69
29907;BME280;16776;50.958;10.994;2022-11-15T09:34:21;98053.69;;;14.83;97.66
29907;BME280;16776;50.958;10.994;2022-11-15T09:36:47;98056.81;;;14.72;97.53
29907;BME280;16776;50.958;10.994;2022-11-15T09:39:14;98054.88;;;14.60;97.76
29907;BME280;16776;50.958;10.994;2022-11-15T09:41:50;98054.97;;;14.58;97.35
29907;BME280;16776;50.958;10.994;2022-11-15T09:44:35;98046.75;;;14.50;98.28
29907;BME280;16776;50.958;10.994;2022-11-15T09:47:23;98045.44;;;14.42;98.23
29907;BME280;16776;50.958;10.994;2022-11-15T09:49:54;98047.81;;;14.29;98.10
29907;BME280;16776;50.958;10.994;2022-11-15T09:52:24;98036.69;;;14.27;98.19
29907;BME280;16776;50.958;10.994;2022-11-15T09:54:52;98039.28;;;14.27;98.15
29907;BME280;16776;50.958;10.994;2022-11-15T09:57:21;98037.53;;;14.28;98.16
29907;BME280;16776;50.958;10.994;2022-11-15T09:59:58;98040.13;;;14.28;97.59
29907;BME280;16776;50.958;10.994;2022-11-15T10:02:48;98040.50;;;14.37;98.00
29907;BME280;16776;50.958;10.994;2022-11-15T10:05:20;98032.22;;;14.31;98.64
29907;BME280;16776;50.958;10.994;2022-11-15T10:07:54;98023.03;;;14.41;98.02
29907;BME280;16776;50.958;10.994;2022-11-15T10:10:29;98015.97;;;14.44;98.01
29907;BME280;16776;50.958;10.994;2022-11-15T10:12:59;98022.66;;;14.48;98.13
29907;BME280;16776;50.958;10.994;2022-11-15T10:15:27;98015.34;;;14.56;98.06
29907;BME280;16776;50.958;10.994;2022-11-15T10:18:07;98015.47;;;14.71;98.07
29907;BME280;16776;50.958;10.994;2022-11-15T10:20:44;98009.03;;;14.78;97.72
29907;BME280;16776;50.958;10.994;2022-11-15T10:23:14;98007.75;;;14.85;98.47
29907;BME280;16776;50.958;10.994;2022-11-15T10:25:42;98002.94;;;14.94;97.99
29907;BME280;16776;50.958;10.994;2022-11-15T10:28:14;98002.91;;;15.10;98.12
29907;BME280;16776;50.958;10.994;2022-11-15T10:30:44;97993.63;;;15.22;97.85
29907;BME280;16776;50.958;10.994;2022-11-15T10:33:25;97996.16;;;15.39;97.17
29907;BME280;16776;50.958;10.994;2022-11-15T10:36:25;97995.28;;;15.54;97.69
29907;BME280;16776;50.958;10.994;2022-11-15T10:38:56;97985.56;;;15.58;97.28
29907;BME280;16776;50.958;10.994;2022-11-15T10:41:35;97979.59;;;15.71;97.09
29907;BME280;16776;50.958;10.994;2022-11-15T10:44:18;97985.66;;;15.86;97.20
29907;BME280;16776;50.958;10.994;2022-11-15T10:46:50;97978.59;;;15.88;96.65
29907;BME280;16776;50.958;10.994;2022-11-15T10:49:31;97970.72;;;15.90;95.99
29907;BME280;16776;50.958;10.994;2022-11-15T10:52:00;97967.84;;;15.94;94.60
29907;BME280;16776;50.958;10.994;2022-11-15T10:54:36;97934.63;;;15.71;94.67
29907;BME280;16776;50.958;10.994;2022-11-15T10:57:06;97970.06;;;15.86;94.26
29907;BME280;16776;50.958;10.994;2022-11-15T10:59:36;97975.44;;;15.83;94.61
29907;BME280;16776;50.958;10.994;2022-11-15T11:02:26;97969.41;;;15.83;94.19
29907;BME280;16776;50.958;10.994;2022-11-15T11:04:56;97956.66;;;15.64;93.29
29907;BME280;16776;50.958;10.994;2022-11-15T11:07:25;97955.91;;;15.62;93.87
29907;BME280;16776;50.958;10.994;2022-11-15T11:09:58;97963.59;;;15.63;94.21
29907;BME280;16776;50.958;10.994;2022-11-15T11:12:27;97952.56;;;15.60;93.26
29907;BME280;16776;50.958;10.994;2022-11-15T11:14:57;97938.56;;;15.48;92.15
29907;BME280;16776;50.958;10.994;2022-11-15T11:17:32;97945.88;;;15.56;93.70
29907;BME280;16776;50.958;10.994;2022-11-15T11:20:07;97939.13;;;15.53;93.82
29907;BME280;16776;50.958;10.994;2022-11-15T11:22:41;97935.69;;;15.53;92.50
29907;BME280;16776;50.958;10.994;2022-11-15T11:25:23;97930.50;;;15.53;92.20
29907;BME280;16776;50.958;10.994;2022-11-15T11:28:09;97928.66;;;15.55;93.37
29907;BME280;16776;50.958;10.994;2022-11-15T11:30:50;97934.66;;;15.55;92.68
29907;BME280;16776;50.958;10.994;2022-11-15T11:33:26;97933.84;;;15.55;92.27
29907;BME280;16776;50.958;10.994;2022-11-15T11:36:05;97926.63;;;15.60;93.14
29907;BME280;16776;50.958;10.994;2022-11-15T11:38:42;97924.75;;;15.62;91.78
29907;BME280;16776;50.958;10.994;2022-11-15T11:41:20;97928.31;;;15.61;92.07
29907;BME280;16776;50.958;10.994;2022-11-15T11:44:05;97921.25;;;15.63;91.67
29907;BME280;16776;50.958;10.994;2022-11-15T11:46:48;97918.56;;;15.64;91.11
29907;BME280;16776;50.958;10.994;2022-11-15T11:49:19;97917.09;;;15.60;91.75
29907;BME280;16776;50.958;10.994;2022-11-15T11:51:51;97916.97;;;15.62;91.71
29907;BME280;16776;50.958;10.994;2022-11-15T11:54:22;97911.78;;;15.62;91.56
29907;BME280;16776;50.958;10.994;2022-11-15T11:56:50;97905.38;;;15.53;91.80
29907;BME280;16776;50.958;10.994;2022-11-15T11:59:23;97899.38;;;15.67;91.61
29907;BME280;16776;50.958;10.994;2022-11-15T12:01:52;97905.19;;;15.56;91.38
29907;BME280;16776;50.958;10.994;2022-11-15T12:04:24;97893.81;;;15.59;91.17
29907;BME280;16776;50.958;10.994;2022-11-15T12:06:58;97886.09;;;15.57;91.76
29907;BME280;16776;50.958;10.994;2022-11-15T12:09:30;97891.97;;;15.61;92.44
29907;BME280;16776;50.958;10.994;2022-11-15T12:12:04;97886.56;;;15.64;92.11
29907;BME280;16776;50.958;10.994;2022-11-15T12:14:42;97882.84;;;15.68;91.78
29907;BME280;16776;50.958;10.994;2022-11-15T12:17:10;97893.25;;;15.68;92.83
29907;BME280;16776;50.958;10.994;2022-11-15T12:19:41;97885.13;;;15.74;92.68
29907;BME280;16776;50.958;10.994;2022-11-15T12:22:13;97871.78;;;15.80;92.98
29907;BME280;16776;50.958;10.994;2022-11-15T12:24:45;97868.69;;;15.88;93.01
29907;BME280;16776;50.958;10.994;2022-11-15T12:27:16;97874.94;;;15.99;93.40
29907;BME280;16776;50.958;10.994;2022-11-15T12:29:46;97870.09;;;16.07;93.35
29907;BME280;16776;50.958;10.994;2022-11-15T12:32:23;97861.78;;;16.16;92.85
29907;BME280;16776;50.958;10.994;2022-11-15T12:34:55;97878.91;;;16.19;92.91
29907;BME280;16776;50.958;10.994;2022-11-15T12:37:47;97867.78;;;16.31;93.08
29907;BME280;16776;50.958;10.994;2022-11-15T12:40:20;97857.88;;;16.24;92.92
29907;BME280;16776;50.958;10.994;2022-11-15T12:45:51;97858.97;;;16.05;92.08
29907;BME280;16776;50.958;10.994;2022-11-15T12:48:46;97854.50;;;16.07;92.25
29907;BME280;16776;50.958;10.994;2022-11-15T12:51:15;97860.28;;;15.84;91.61
29907;BME280;16776;50.958;10.994;2022-11-15T12:53:42;97841.53;;;15.65;92.05
29907;BME280;16776;50.958;10.994;2022-11-15T12:56:20;97845.59;;;15.69;92.18
29907;BME280;16776;50.958;10.994;2022-11-15T12:58:49;97844.31;;;15.48;92.47
29907;BME280;16776;50.958;10.994;2022-11-15T13:01:53;97845.63;;;15.55;92.26
29907;BME280;16776;50.958;10.994;2022-11-15T13:04:24;97839.84;;;15.35;92.71
29907;BME280;16776;50.958;10.994;2022-11-15T13:06:54;97848.66;;;15.31;92.62
29907;BME280;16776;50.958;10.994;2022-11-15T13:09:50;97841.66;;;15.33;92.60
29907;BME280;16776;50.958;10.994;2022-11-15T13:12:48;97832.47;;;15.28;92.63
29907;BME280;16776;50.958;10.994;2022-11-15T13:18:28;97823.16;;;15.10;93.13
29907;BME280;16776;50.958;10.994;2022-11-15T13:20:55;97829.16;;;15.10;93.38